createdAt,value
2018-01-05T00:04:35.288Z,8.7
2018-01-05T00:09:35.297Z,9.3
2018-01-05T00:14:35.302Z,9.4
2018-01-05T00:19:35.643Z,9.6
2018-01-05T00:24:36.900Z,10
2018-01-05T00:29:35.785Z,10.2
2018-01-05T00:34:35.617Z,10.3
2018-01-05T00:39:35.629Z,10.2
2018-01-05T00:44:35.627Z,9.8
2018-01-05T00:49:35.641Z,9.4
2018-01-05T00:54:35.640Z,9.2
2018-01-05T00:59:35.652Z,9.1
2018-01-05T01:04:35.635Z,8.9
2018-01-05T01:09:35.820Z,8.9
2018-01-05T01:14:35.744Z,8.8
2018-01-05T01:19:35.648Z,8.8
2018-01-05T01:24:35.823Z,8.7
2018-01-05T01:29:35.643Z,8.7
2018-01-05T01:34:35.660Z,8.7
2018-01-05T01:39:35.800Z,8.8
2018-01-05T01:44:35.757Z,8.9
2018-01-05T01:49:35.693Z,9
2018-01-05T01:54:35.665Z,9.3
2018-01-05T01:59:35.823Z,9.3
2018-01-05T02:04:35.675Z,9.4
2018-01-05T02:09:35.664Z,9.6
2018-01-05T02:14:35.806Z,9.8
2018-01-05T02:19:35.675Z,9.6
2018-01-05T02:24:35.686Z,9.5
2018-01-05T02:29:35.685Z,9.4
2018-01-05T02:34:35.701Z,9.3
2018-01-05T02:39:35.691Z,9.2
2018-01-05T02:44:35.721Z,9.1
2018-01-05T02:49:35.818Z,9
2018-01-05T02:54:35.845Z,9
2018-01-05T02:59:35.865Z,8.9
2018-01-05T03:04:35.699Z,8.9
2018-01-05T03:09:35.711Z,8.9
2018-01-05T03:14:35.712Z,8.8
2018-01-05T03:19:35.794Z,8.8
2018-01-05T03:24:35.816Z,8.9
2018-01-05T03:29:35.710Z,8.8
2018-01-05T03:34:35.723Z,8.9
2018-01-05T03:39:35.805Z,8.7
2018-01-05T03:44:35.721Z,8.7
2018-01-05T03:49:35.878Z,8.7
2018-01-05T03:54:35.809Z,8.6
2018-01-05T03:59:35.720Z,8.5
2018-01-05T04:04:35.729Z,8.5
2018-01-05T04:09:35.741Z,8.5
2018-01-05T04:14:35.776Z,8.5
2018-01-05T04:19:35.759Z,8.4
2018-01-05T04:24:35.758Z,8.4
2018-01-05T04:29:35.754Z,8.3
2018-01-05T04:34:35.851Z,8.3
2018-01-05T04:39:35.862Z,8.2
2018-01-05T04:44:35.744Z,8.1
2018-01-05T04:49:35.744Z,8.1
2018-01-05T04:54:35.785Z,8.1
2018-01-05T04:59:35.793Z,8
2018-01-05T05:04:35.782Z,7.9
2018-01-05T05:09:35.833Z,7.8
2018-01-05T05:14:35.766Z,7.7
2018-01-05T05:19:35.780Z,7.6
2018-01-05T05:24:35.769Z,7.4
2018-01-05T05:29:35.769Z,7.2
2018-01-05T05:34:35.905Z,7.1
2018-01-05T05:39:35.918Z,7.1
2018-01-05T05:44:35.785Z,7
2018-01-05T05:49:35.775Z,6.8
2018-01-05T05:54:35.945Z,6.8
2018-01-05T05:59:35.802Z,6.7
2018-01-05T06:04:35.988Z,6.6
2018-01-05T06:09:35.806Z,6.6
2018-01-05T06:14:35.814Z,6.6
2018-01-05T06:19:35.985Z,6.5
2018-01-05T06:24:36.023Z,6.4
2018-01-05T06:29:35.816Z,6.4
2018-01-05T06:34:35.979Z,6.3
2018-01-05T06:39:35.973Z,6.1
2018-01-05T06:44:35.827Z,6.1
2018-01-05T06:49:35.939Z,5.9
2018-01-05T06:54:35.822Z,5.9
2018-01-05T06:59:35.836Z,5.9
2018-01-05T07:04:35.834Z,5.8
2018-01-05T07:09:35.989Z,5.6
2018-01-05T07:14:35.848Z,5.7
2018-01-05T07:19:35.850Z,5.7
2018-01-05T07:24:35.945Z,5.7
2018-01-05T07:29:36.909Z,5.7
2018-01-05T07:34:35.851Z,5.7
2018-01-05T07:39:35.842Z,5.8
2018-01-05T07:44:35.966Z,5.7
2018-01-05T07:49:35.861Z,5.6
2018-01-05T07:54:35.870Z,5.6
2018-01-05T07:59:35.864Z,5.6
2018-01-05T08:04:35.877Z,5.7
2018-01-05T08:09:36.039Z,5.7
2018-01-05T08:14:36.055Z,5.8
2018-01-05T08:19:35.890Z,5.8
2018-01-05T08:24:36.029Z,6
2018-01-05T08:29:36.008Z,6.1
2018-01-05T08:34:35.968Z,6.1
2018-01-05T08:39:36.005Z,6.3
2018-01-05T08:44:35.903Z,6.3
2018-01-05T08:49:36.052Z,6.5
2018-01-05T08:54:35.882Z,6.6
2018-01-05T08:59:36.034Z,6.8
2018-01-05T09:04:35.881Z,7
2018-01-05T09:09:35.920Z,7.2
2018-01-05T09:14:36.023Z,7.4
2018-01-05T09:19:36.037Z,7.5
2018-01-05T09:24:35.905Z,7.6
2018-01-05T09:29:35.923Z,7.7
2018-01-05T09:34:35.908Z,7.9
2018-01-05T09:39:36.068Z,8.1
2018-01-05T09:44:35.907Z,8.3
2018-01-05T09:49:35.931Z,8.5
2018-01-05T09:54:36.084Z,8.7
2018-01-05T09:59:35.935Z,8.8
2018-01-05T10:04:36.114Z,9.1
2018-01-05T10:09:35.923Z,9.4
2018-01-05T10:14:36.088Z,9.5
2018-01-05T10:19:36.102Z,9.6
2018-01-05T10:24:35.936Z,9.8
2018-01-05T10:29:35.934Z,9.9
2018-01-05T10:34:36.090Z,10.1
2018-01-05T10:39:35.945Z,10.5
2018-01-05T10:44:36.081Z,10.6
2018-01-05T10:49:37.096Z,10.8
2018-01-05T10:54:36.126Z,10.9
2018-01-05T10:59:36.188Z,11.2
2018-01-05T11:04:36.145Z,11
2018-01-05T11:09:36.124Z,11
2018-01-05T11:14:35.951Z,11
2018-01-05T11:19:35.969Z,11.1
2018-01-05T11:24:36.086Z,11.1
2018-01-05T11:29:35.970Z,11.4
2018-01-05T11:34:35.968Z,11.3
2018-01-05T11:39:36.068Z,11.4
2018-01-05T11:44:46.083Z,11.4
2018-01-05T11:49:36.140Z,11.5
2018-01-05T11:54:36.178Z,11.6
2018-01-05T11:59:36.104Z,11.7
2018-01-05T12:04:35.992Z,11.7
2018-01-05T12:09:35.984Z,11.7
2018-01-05T12:14:36.256Z,11.6
2018-01-05T12:19:36.031Z,11.8
2018-01-05T12:24:36.150Z,11.8
2018-01-05T12:29:36.184Z,11.9
2018-01-05T12:34:36.012Z,11.9
2018-01-05T12:39:36.052Z,11.9
2018-01-05T12:44:36.215Z,12
2018-01-05T12:49:36.240Z,12.1
2018-01-05T12:54:36.032Z,12.2
2018-01-05T12:59:36.182Z,12
2018-01-05T13:04:36.024Z,12
2018-01-05T13:09:36.134Z,12
2018-01-05T13:14:36.069Z,11.9
2018-01-05T13:19:36.145Z,11.8
2018-01-05T13:24:36.041Z,11.8
2018-01-05T13:29:36.031Z,11.9
2018-01-05T13:34:36.191Z,11.9
2018-01-05T13:39:36.074Z,11.9
2018-01-05T13:44:36.050Z,12
2018-01-05T13:49:36.146Z,11.8
2018-01-05T13:54:36.243Z,11.9
2018-01-05T13:59:36.075Z,11.9
2018-01-05T14:04:36.105Z,11.9
2018-01-05T14:09:36.066Z,11.9
2018-01-05T14:14:36.234Z,11.9
2018-01-05T14:19:36.256Z,12.9
2018-01-05T14:24:36.166Z,11.9
2018-01-05T14:29:36.127Z,11.6
2018-01-05T14:34:36.123Z,11.5
2018-01-05T14:39:36.269Z,11.3
2018-01-05T14:44:36.100Z,11.1
2018-01-05T14:49:36.083Z,10.7
2018-01-05T14:54:36.182Z,10.6
2018-01-05T14:59:36.098Z,10.4
2018-01-05T15:04:36.133Z,10.2
2018-01-05T15:09:36.422Z,10.1
2018-01-05T15:14:36.354Z,9.8
2018-01-05T15:19:36.167Z,9.8
2018-01-05T15:24:36.161Z,9.5
2018-01-05T15:29:36.149Z,9.5
2018-01-05T15:34:36.194Z,9.2
2018-01-05T15:39:36.186Z,9.1
2018-01-05T15:44:36.168Z,9
2018-01-05T15:49:36.154Z,8.8
2018-01-05T15:54:36.162Z,8.7
2018-01-05T15:59:36.163Z,8.6
2018-01-05T16:04:36.192Z,8.3
2018-01-05T16:09:36.170Z,8.3
2018-01-05T16:14:36.220Z,8.3
2018-01-05T16:19:36.199Z,8.2
2018-01-05T16:24:36.190Z,8.2
2018-01-05T16:29:36.193Z,8.2
2018-01-05T16:34:36.219Z,8
2018-01-05T16:39:36.218Z,7.9
2018-01-05T16:44:36.222Z,7.8
2018-01-05T16:49:36.221Z,7.8
2018-01-05T16:54:36.249Z,7.6
2018-01-05T16:59:36.214Z,7.6
2018-01-05T17:04:36.201Z,7.4
2018-01-05T17:09:36.229Z,7.3
2018-01-05T17:14:36.239Z,7
2018-01-05T17:19:36.223Z,7
2018-01-05T17:24:36.252Z,6.8
2018-01-05T17:29:36.248Z,6.7
2018-01-05T17:34:36.223Z,6.7
2018-01-05T17:39:36.229Z,6.8
2018-01-05T17:44:36.235Z,6.7
2018-01-05T17:49:36.263Z,6.7
2018-01-05T17:54:36.254Z,6.6
2018-01-05T17:59:36.241Z,6.6
2018-01-05T18:04:36.252Z,6.5
2018-01-05T18:09:36.284Z,6.5
2018-01-05T18:14:36.260Z,6.5
2018-01-05T18:19:36.274Z,6.6
2018-01-05T18:24:36.239Z,6.5
2018-01-05T18:29:36.277Z,6.5
2018-01-05T18:34:36.279Z,6.5
2018-01-05T18:39:36.302Z,6.4
2018-01-05T18:44:36.279Z,6.4
2018-01-05T18:49:36.327Z,6.4
2018-01-05T18:54:36.273Z,6.3
2018-01-05T18:59:36.287Z,6.3
2018-01-05T19:04:36.412Z,6.2
2018-01-05T19:09:36.449Z,6.1
2018-01-05T19:14:36.304Z,6.1
2018-01-05T19:19:36.307Z,6
2018-01-05T19:24:36.445Z,5.8
2018-01-05T19:29:36.454Z,5.8
2018-01-05T19:34:36.349Z,5.8
2018-01-05T19:39:36.335Z,5.7
2018-01-05T19:44:36.463Z,5.7
2018-01-05T19:49:36.483Z,5.7
2018-01-05T19:54:36.407Z,5.7
2018-01-05T19:59:36.428Z,5.6
2018-01-05T20:04:36.458Z,5.6
2018-01-05T20:09:36.354Z,5.5
2018-01-05T20:14:36.339Z,5.4
2018-01-05T20:19:37.329Z,5.4
2018-01-05T20:24:36.433Z,5.4
2018-01-05T20:29:36.342Z,5.3
2018-01-05T20:34:36.340Z,5.4
2018-01-05T20:39:36.569Z,5.4
2018-01-05T20:44:36.823Z,5.2
2018-01-05T20:49:38.095Z,5.1
2018-01-05T20:54:36.835Z,5
2018-01-05T20:59:37.025Z,5.1
2018-01-05T21:04:36.915Z,5
2018-01-05T21:09:36.813Z,4.9
2018-01-05T21:14:36.862Z,4.8
2018-01-05T21:19:36.860Z,4.7
2018-01-05T21:24:36.955Z,4.6
2018-01-05T21:29:36.851Z,4.6
2018-01-05T21:34:36.832Z,4.5
2018-01-05T21:39:36.866Z,4.4
2018-01-05T21:44:36.873Z,4.4
2018-01-05T21:49:36.869Z,4.2
2018-01-05T21:54:36.854Z,4.3
2018-01-05T21:59:36.863Z,4.2
2018-01-05T22:04:36.822Z,4.2
2018-01-05T22:09:36.867Z,4.2
2018-01-05T22:14:36.908Z,4.2
2018-01-05T22:19:36.869Z,4.1
2018-01-05T22:24:36.860Z,4.2
2018-01-05T22:29:36.854Z,4.2
2018-01-05T22:34:36.885Z,4.3
2018-01-05T22:39:36.874Z,4.4
2018-01-05T22:44:36.872Z,4.5
2018-01-05T22:49:36.861Z,4.5
2018-01-05T22:54:36.908Z,4.7
2018-01-05T22:59:36.869Z,4.7
2018-01-05T23:04:36.894Z,4.7
2018-01-05T23:09:36.896Z,4.8
2018-01-05T23:14:36.866Z,4.7
2018-01-05T23:19:36.900Z,4.8
2018-01-05T23:24:36.880Z,4.8
2018-01-05T23:29:39.108Z,4.9
2018-01-05T23:34:36.912Z,5
2018-01-05T23:39:37.013Z,5
2018-01-05T23:44:36.908Z,5
2018-01-05T23:49:36.924Z,5
2018-01-05T23:54:36.902Z,4.9
2018-01-05T23:59:36.929Z,4.9
